North River — WYR2549 — position and weather

sailwx.info

Track history (hours):
 
Tides and Currents Weather Stations Pressure Air Temp Water Temp Dewpoint Dewpoint Depression Visibility Wind Speed Wind Dir Waves Ship Positions

North River

Owner: CITY OF NEW YORK, Brooklyn, NY. More information available from US FCC via Universal Licensing System and Coast Guard Vessel Documentation Center.

Last reported at 2014-Sep-26 20:33 UTC. Time now 2014-Oct-02 08:24 UTC.
Position N 40°48' W 073°54'.

Length 78 m.

Type: Tanker. MMSI: 367074110.

Date/timePositionNaut miles runAvg speedWind from/ knotsBaromVisibWave heightAir tempDewpointWater temp
2014-Sep-26 20:33N 40°48' W 073°54'9 8.7
2014-Sep-26 19:33N 40°41' W 074°01'6 5.6
2014-Sep-26 18:32N 40°38' W 074°08'0 0.0
2014-Sep-26 17:33N 40°38' W 074°08'4 4.2
2014-Sep-26 16:33N 40°39' W 074°02'0 0.0
2014-Sep-26 15:33N 40°39' W 074°02'0 0.0
2014-Sep-26 14:33N 40°39' W 074°02'8 7.8
2014-Sep-26 13:33N 40°46' W 073°57'3 3.1
2014-Sep-26 12:32N 40°47' W 073°54'0 0.0
2014-Sep-26 11:33N 40°47' W 073°54'  
2014-Sep-23 18:32N 40°47' W 073°53'5 4.7
2014-Sep-23 17:33N 40°44' W 073°58'6 5.6
2014-Sep-23 16:34N 40°39' W 074°02'0 0.5
2014-Sep-23 15:34N 40°39' W 074°02'0 0.0
2014-Sep-23 14:33N 40°39' W 074°02'3 3.0
2014-Sep-23 13:33N 40°41' W 074°00'8 7.8
2014-Sep-23 12:30N 40°48' W 073°54'1 1.0
2014-Sep-23 11:29N 40°47' W 073°54'  
Track history (hours):
 
Tides and Currents Weather Stations Pressure Air Temp Water Temp Dewpoint Dewpoint Depression Visibility Wind Speed Wind Dir Waves Ship Positions

North River

Owner: CITY OF NEW YORK, Brooklyn, NY. More information available from US FCC via Universal Licensing System and Coast Guard Vessel Documentation Center.

Last reported at 2014-Sep-26 20:33 UTC. Time now 2014-Oct-02 08:24 UTC.
Position N 40°48' W 073°54'.

Length 78 m.

Type: Tanker. MMSI: 367074110.

Date/timePositionNaut miles runAvg speedWind from/ knotsBaromVisibWave heightAir tempDewpointWater temp
2014-Sep-26 20:33N 40°48' W 073°54'9 8.7
2014-Sep-26 19:33N 40°41' W 074°01'6 5.6
2014-Sep-26 18:32N 40°38' W 074°08'0 0.0
2014-Sep-26 17:33N 40°38' W 074°08'4 4.2
2014-Sep-26 16:33N 40°39' W 074°02'0 0.0
2014-Sep-26 15:33N 40°39' W 074°02'0 0.0
2014-Sep-26 14:33N 40°39' W 074°02'8 7.8
2014-Sep-26 13:33N 40°46' W 073°57'3 3.1
2014-Sep-26 12:32N 40°47' W 073°54'0 0.0
2014-Sep-26 11:33N 40°47' W 073°54'  
2014-Sep-23 18:32N 40°47' W 073°53'5 4.7
2014-Sep-23 17:33N 40°44' W 073°58'6 5.6
2014-Sep-23 16:34N 40°39' W 074°02'0 0.5
2014-Sep-23 15:34N 40°39' W 074°02'0 0.0
2014-Sep-23 14:33N 40°39' W 074°02'3 3.0
2014-Sep-23 13:33N 40°41' W 074°00'8 7.8
2014-Sep-23 12:30N 40°48' W 073°54'1 1.0
2014-Sep-23 11:29N 40°47' W 073°54'  

Dump ship's entire track history